La plateforme de Tours Sorigny


Adresse :

Aérodrome de Tours-Sorigny

RD 910

37250 SORIGNY


Carte VAC :

https://www.sia.aviation-civile.gouv.fr/dvd/eAIP_19_JUL_2018/Atlas-VAC/PDF_AIPparSSection/VAC/AD/AD-2.LFEN.pdf

METAR / TAF:

LFOT 110500Z AUTO 00000KT 0700 0600 R20/0800N FG VV/// 02/02 Q1026 TEMPO 0500 FG

TAF LFOT 101700Z 1018/1118 28006KT 9999 SCT030 PROB30 TEMPO 1020/1024 0800 BCFG VV/// BECMG 1100/1102 2000 BR OVC002 TEMPO 1101/1112 0500 FG VV/// BECMG 1112/1114 12008KT 4000 BR OVC006 TEMPO 1115/1118 8000 SCT012